KAMW/AMW METAR and TAF weather

Enter ICAO airport designator
Station Type Date Time Source
KAMW METAR 2022/07/03 14:53 UTC NOAA

KAMW 031453Z AUTO 16007KT 10SM CLR 25/18 A3010 RMK AO2 SLP182 T02500178 53001


Station Type Date Time Source
KAMW Decoded METAR 2022/07/03 14:53 UTC NOAA

AMES MUNICIPAL AIRPORT, IA, United States (KAMW) 41-59N 93-37W 279M
Jul 03, 2022 - 10:53 AM EDT / 2022.07.03 1453 UTC
Wind: from the SSE (160 degrees) at 8 MPH (7 KT):0
Visibility: 10 mile(s):0
Sky conditions: clear
Temperature: 77.0 F (25.0 C)
Dew Point: 64.0 F (17.8 C)
Relative Humidity: 64%
Pressure (altimeter): 30.1 in. Hg (1019 hPa)
Pressure tendency: 0.00 inches (0.1 hPa) higher than three hours ago
ob: KAMW 031453Z AUTO 16007KT 10SM CLR 25/18 A3010 RMK AO2 SLP182 T02500178 53001
cycle: 15

Station Type Date Time Source
KAMW TAF UTC NOAA

Error!

Example: see airport list